Bryant, Mississippi
Current Conditions -  °F | °C
As of 5:15 PM on Thursday 20 Nov 2014 (Local Time) from KGNF Reporting Station
Broken Clouds Broken Clouds  
Wind Chill: 50°   Ceiling: 7500
Heat Index: 50°   Visibility: 10mi
Dew Point: 43°   Wind: 0mph
Humidity: 76%   Direction: NA
Pressure: 30.19"   Gusts: NA
Location:  33.9467°N, 89.6428°W
Report Text: KGNF 202315Z AUTO 00000KT 10SM SCT050 BKN075 10/06 A3019 RMK AO2
Loading
Personal Weather Stations






























Interactive Weather Map New forecast layout! Learn more

10-Day Weather Forecast

Advertisements
Track Severe Weather on mobile